Latest Weather Observations for Toowoomba

IDQ60901

Issued at 7:21 am EST Thursday 5 May 2016 (issued every 10 minutes, with the page automatically refreshed every 10 minutes)

About weather observations | Map of Brisbane area stations | Latest observations for Brisbane area | Other Formats
Station Details ID: 041529 Name: TOOWOOMBA AIRPORT Lat: -27.54 Lon: 151.91 Height: 640.9 m
Data from the previous 72 hours. | See also: Recent months at Toowoomba
Date/Time
EST
Tmp

°C
App
Tmp
°C
Dew
Point
°C
Rel
Hum
%
Delta-T

°C
Wind Press
QNH
hPa
Press
MSL
hPa
Rain
since
9 am
mm
Dir
 
Spd
km/h
Gust
km/h
Spd
kts
Gust
kts
05/07:00am 13.2 12.4 12.9 98 0.2 E 9 11 5 6 1022.5 1021.1 0.0
05/06:30am 11.8 10.6 11.6 99 0.1 ESE 9 11 5 6 1022.1 1020.7 0.0
05/06:00am 11.7 10.1 11.4 98 0.2 E 11 11 6 6 1021.9 1020.5 0.0
05/05:30am 11.9 10.7 11.7 99 0.1 ESE 9 11 5 6 1021.5 1020.2 0.0
05/05:00am 11.8 10.2 11.6 99 0.1 ESE 11 13 6 7 1021.3 1019.9 0.0
05/04:30am 11.4 10.1 11.1 98 0.2 E 9 11 5 6 1021.1 1019.7 0.0
05/04:00am 12.2 11.1 11.9 98 0.2 E 9 11 5 6 1021.0 1019.6 0.0
05/03:30am 11.8 10.8 10.9 94 0.5 E 7 11 4 6 1020.9 1019.5 0.0
05/03:00am 13.2 12.8 13.0 99 0.1 E 7 9 4 5 1020.8 1019.4 0.0
05/02:30am 12.9 12.3 12.4 97 0.3 E 7 7 4 4 1020.9 1019.5 0.0
05/02:00am 13.3 12.8 12.7 96 0.3 E 7 9 4 5 1021.0 1019.6 0.0
05/01:30am 12.9 11.5 12.3 96 0.3 E 11 13 6 7 1021.2 1019.8 0.0
05/01:00am 12.9 11.5 12.3 96 0.3 E 11 13 6 7 1021.4 1020.0 0.0
05/12:30am 13.0 11.6 12.1 94 0.5 E 11 13 6 7 1021.6 1020.3 0.0
05/12:00am 13.2 11.4 12.1 93 0.6 E 13 13 7 7 1021.7 1020.4 0.0
 
Date/Time
EST
Tmp

°C
App
Tmp
°C
Dew
Point
°C
Rel
Hum
%
Delta-T

°C
Wind Press
QNH
hPa
Press
MSL
hPa
Rain
since
9 am
mm
Dir
 
Spd
km/h
Gust
km/h
Spd
kts
Gust
kts
04/11:30pm 13.0 11.0 11.6 91 0.8 ESE 13 13 7 7 1022.0 1020.6 0.0
04/11:00pm 13.8 12.2 11.7 87 1.2 ESE 11 11 6 6 1022.2 1020.8 0.0
04/10:30pm 14.5 13.0 11.8 84 1.5 E 11 15 6 8 1022.4 1021.0 0.0
04/10:00pm 15.0 13.2 12.1 83 1.6 E 13 17 7 9 1022.5 1021.1 0.0
04/09:30pm 15.0 12.3 11.6 80 1.9 ESE 17 20 9 11 1022.3 1020.9 0.0
04/09:00pm 15.2 12.4 11.2 77 2.2 ESE 17 19 9 10 1022.1 1020.7 0.0
04/08:30pm 16.0 12.8 11.2 73 2.7 ESE 19 26 10 14 1022.0 1020.6 0.0
04/08:00pm 16.8 13.9 10.9 68 3.3 ESE 17 24 9 13 1021.9 1020.5 0.0
04/07:30pm 17.4 15.2 7.7 53 5.1 SSW 9 9 5 5 1021.2 1019.8 0.0
04/07:00pm 17.3 15.4 7.4 52 5.1 SSW 7 9 4 5 1020.7 1019.3 0.0
04/06:30pm 17.7 15.4 7.4 51 5.4 SW 9 13 5 7 1020.3 1018.9 0.0
04/06:00pm 18.6 16.2 6.8 46 6.1 SW 9 13 5 7 1019.6 1018.2 0.0
04/05:30pm 19.4 16.6 6.8 44 6.6 WSW 11 15 6 8 1019.1 1017.7 0.0
04/05:00pm 21.3 18.0 6.4 38 7.8 WSW 13 15 7 8 1018.9 1017.5 0.0
04/04:30pm 22.4 18.9 5.4 33 8.8 SW 13 19 7 10 1018.6 1017.1 0.0
04/04:00pm 23.2 19.8 6.1 33 9.0 SW 13 19 7 10 1018.3 1016.9 0.0
04/03:30pm 23.1 18.5 5.5 32 9.1 W 19 24 10 13 1018.0 1016.6 0.0
04/03:00pm 23.5 19.6 5.4 31 9.4 W 15 20 8 11 1017.9 1016.5 0.0
04/02:30pm 23.2 19.1 4.2 29 9.6 WSW 15 24 8 13 1017.6 1016.2 0.0
04/02:00pm 23.0 17.8 3.5 28 9.7 WSW 20 32 11 17 1017.8 1016.4 0.0
04/01:30pm 23.0 17.6 2.5 26 10.1 WSW 20 28 11 15 1017.9 1016.5 0.0
04/01:00pm 22.7 17.8 4.2 30 9.3 SW 19 24 10 13 1017.9 1016.5 0.0
04/12:30pm 22.4 18.0 4.9 32 8.9 SW 17 28 9 15 1018.3 1016.9 0.0
04/12:00pm 21.8 16.5 3.0 29 9.2 WSW 20 30 11 16 1018.9 1017.5 0.0
04/11:30am 21.6 16.8 5.5 35 8.3 WSW 20 28 11 15 1019.3 1017.9 0.0
04/11:00am 20.5 16.6 7.2 42 7.0 WSW 17 24 9 13 1019.8 1018.4 0.0
04/10:30am 19.5 15.5 8.2 48 6.0 SW 19 26 10 14 1020.4 1019.0 0.0
04/10:00am 18.9 15.7 9.9 56 4.9 WSW 17 24 9 13 1020.7 1019.3 0.0
04/09:30am 18.0 14.0 10.4 61 4.2 SW 22 28 12 15 1020.7 1019.3 0.0
04/09:00am 17.1 13.2 10.9 67 3.4 SW 22 28 12 15 1020.6 1019.2 0.0
04/08:30am 16.7 13.5 11.8 73 2.8 SW 20 33 11 18 1020.4 1019.0 0.0
04/08:00am 15.7 13.3 12.8 83 1.6 WSW 17 24 9 13 1020.5 1019.1 0.0
04/07:30am 14.8 11.8 12.7 87 1.2 WSW 20 24 11 13 1019.6 1018.2 0.0
04/07:00am 15.0 12.6 12.7 86 1.3 WSW 17 20 9 11 1019.1 1017.7 0.0
04/06:30am 14.8 12.4 12.5 86 1.3 SW 17 22 9 12 1018.9 1017.5 0.0
04/06:00am 14.3 12.6 12.5 89 1.0 WSW 13 17 7 9 1018.8 1017.4 0.0
04/05:30am 15.3 12.9 12.6 84 1.5 WSW 17 24 9 13 1018.2 1016.8 0.0
04/05:00am 14.8 12.8 12.8 88 1.1 WSW 15 19 8 10 1017.9 1016.5 0.0
04/04:30am 14.7 13.2 13.1 90 0.9 WSW 13 17 7 9 1017.6 1016.2 0.0
04/04:00am 14.6 13.5 13.1 91 0.9 WSW 11 15 6 8 1017.3 1015.8 0.0
04/03:30am 14.5 13.4 13.2 92 0.7 SW 11 15 6 8 1017.2 1015.7 0.0
04/03:00am 14.2 13.5 13.2 94 0.6 W 9 9 5 5 1017.2 1015.7 0.0
04/02:30am 14.7 14.1 13.6 93 0.6 W 9 11 5 6 1017.2 1015.7 0.0
04/02:00am 14.5 14.2 13.4 93 0.6 W 7 9 4 5 1017.0 1015.5 0.0
04/01:30am 14.8 14.4 13.0 89 1.0 W 7 9 4 5 1017.2 1015.7 0.0
04/01:00am 15.5 14.4 13.2 86 1.3 WSW 11 13 6 7 1017.2 1015.7 0.0
04/12:30am 16.0 14.5 13.1 83 1.7 SW 13 15 7 8 1017.4 1016.0 0.0
04/12:00am 16.2 14.3 13.1 82 1.8 SW 15 19 8 10 1017.5 1016.1 0.0
 
Date/Time
EST
Tmp

°C
App
Tmp
°C
Dew
Point
°C
Rel
Hum
%
Delta-T

°C
Wind Press
QNH
hPa
Press
MSL
hPa
Rain
since
9 am
mm
Dir
 
Spd
km/h
Gust
km/h
Spd
kts
Gust
kts
03/11:30pm 16.1 14.6 13.2 83 1.7 SW 13 17 7 9 1017.5 1016.1 0.0
03/11:00pm 16.3 14.2 13.6 84 1.6 SSW 17 20 9 11 1017.5 1016.1 0.0
03/10:30pm 16.5 14.6 14.3 87 1.3 SSW 17 22 9 12 1017.6 1016.2 0.0
03/10:00pm 16.5 15.4 14.3 87 1.3 SW 13 17 7 9 1017.8 1016.4 0.0
03/09:30pm 16.8 16.0 14.1 84 1.6 SSW 11 15 6 8 1017.8 1016.4 0.0
03/09:00pm 17.2 15.7 14.1 82 1.8 SSW 15 19 8 10 1017.8 1016.4 0.0
03/08:30pm 17.4 15.4 13.9 80 2.1 SW 17 22 9 12 1017.7 1016.3 0.0
03/08:00pm 17.7 15.7 13.8 78 2.3 SW 17 22 9 12 1017.6 1016.2 0.0
03/07:30pm 17.9 15.8 13.6 76 2.5 SW 17 20 9 11 1017.3 1015.8 0.0
03/07:00pm 18.3 16.3 13.8 75 2.6 SW 17 20 9 11 1017.0 1015.5 0.0
03/06:30pm 18.8 16.3 14.1 74 2.8 SW 20 26 11 14 1016.5 1015.1 0.0
03/06:00pm 18.9 17.0 14.2 74 2.8 SW 17 22 9 12 1016.2 1014.8 0.0
03/05:30pm 19.3 17.4 14.3 73 3.0 SW 17 22 9 12 1015.9 1014.4 0.0
03/05:00pm 20.1 18.2 14.2 69 3.5 SW 17 22 9 12 1015.5 1014.0 0.0
03/04:30pm 21.4 19.4 13.8 62 4.5 WSW 17 22 9 12 1015.1 1013.7 0.0
03/04:00pm 21.7 19.4 14.1 62 4.6 WSW 19 24 10 13 1015.0 1013.6 0.0
03/03:30pm 21.9 19.7 14.3 62 4.6 SW 19 24 10 13 1014.9 1013.5 0.0
03/03:00pm 22.5 19.9 13.8 58 5.2 WSW 20 30 11 16 1014.8 1013.4 0.0
03/02:30pm 22.0 19.5 13.4 58 5.1 W 19 28 10 15 1015.0 1013.6 0.0
03/02:00pm 22.2 19.9 14.1 60 4.9 W 19 26 10 14 1015.3 1013.8 0.0
03/01:30pm 20.9 18.5 14.5 67 3.9 WSW 20 24 11 13 1015.7 1014.2 0.0
03/01:00pm 21.3 19.3 14.9 67 3.9 WSW 19 24 10 13 1016.0 1014.6 0.0
03/12:30pm 20.7 19.1 15.0 70 3.5 WSW 17 22 9 12 1016.4 1015.0 0.0
03/12:00pm 20.3 18.3 14.9 71 3.3 WSW 19 26 10 14 1016.7 1015.3 0.0
03/11:30am 20.9 20.0 15.9 73 3.1 WSW 15 20 8 11 1017.2 1015.7 0.0
03/11:16am 19.9 18.6 14.7 72 3.1 WSW 15 20 8 11 1017.4 1016.0 0.0
03/11:00am 20.7 19.3 15.5 72 3.2 WSW 17 22 9 12 1017.7 1016.3 0.0
03/10:58am 20.5 19.0 15.3 72 3.2 WSW 17 26 9 14 1017.7 1016.3 0.0
03/10:51am 20.6 18.8 15.4 72 3.2 WSW 19 26 10 14 1017.9 1016.5 0.0
03/10:30am 20.2 18.3 15.2 73 3.0 WSW 19 24 10 13 1018.1 1016.7 0.0
03/10:00am 19.0 17.4 14.9 77 2.5 W 17 22 9 12 1018.3 1016.9 0.0
03/09:30am 18.6 17.0 14.9 79 2.2 WNW 17 22 9 12 1018.4 1017.0 0.0
03/09:00am 17.8 16.2 15.1 84 1.6 W 17 22 9 12 1018.4 1017.0 5.6
03/08:30am 16.9 15.7 15.1 89 1.1 W 15 20 8 11 1018.7 1017.2 5.6
03/08:00am 16.2 15.4 16.0 99 0.1 WNW 15 17 8 9 1018.6 1017.1 5.6
03/07:59am 16.2 15.4 16.0 99 0.1 WNW 15 17 8 9 1018.6 1017.1 5.6
03/07:30am 16.0 15.5 15.8 99 0.1 W 13 17 7 9 1018.3 1016.9 5.6
03/07:00am 15.9 15.7 15.7 99 0.1 WNW 11 15 6 8 1017.9 1016.5 5.6
03/06:30am 15.8 15.9 15.6 99 0.1 WNW 9 13 5 7 1017.6 1016.2 5.6
03/06:00am 15.8 15.6 15.6 99 0.1 WNW 11 15 6 8 1017.3 1015.8 5.6
03/05:30am 15.8 15.6 15.6 99 0.1 WNW 11 15 6 8 1017.1 1015.6 5.6
03/05:16am 15.8 15.9 15.5 98 0.2 W 9 13 5 7 1017.1 1015.6 5.6
03/05:00am 15.8 15.5 15.5 98 0.2 WNW 11 15 6 8 1017.0 1015.5 5.6
03/04:30am 15.9 15.2 15.4 97 0.3 WNW 13 17 7 9 1016.9 1015.4 5.6
03/04:00am 15.9 15.5 15.3 96 0.4 WNW 11 13 6 7 1016.7 1015.3 5.6
03/03:46am 15.8 15.8 15.2 96 0.4 WNW 9 13 5 7 1016.6 1015.2 5.6
03/03:30am 15.7 15.2 14.9 95 0.5 WNW 11 13 6 7 1016.5 1015.1 5.6
03/03:00am 16.2 15.8 15.2 94 0.6 WNW 11 15 6 8 1016.6 1015.2 5.6
03/02:30am 16.4 16.5 15.4 94 0.6 NNW 9 11 5 6 1016.9 1015.4 5.6
03/02:00am 16.7 16.8 15.4 92 0.8 NNW 9 11 5 6 1017.4 1016.0 5.4
03/01:36am 17.0 17.6 15.3 90 1.0 N 6 9 3 5 1017.7 1016.3 5.4
03/01:30am 17.1 17.5 15.4 90 1.0 N 7 9 4 5 1017.9 1016.5 5.4
03/01:10am 17.2 17.4 15.7 91 0.9 N 9 9 5 5 1017.7 1016.3 5.4
03/01:00am 17.1 17.6 15.6 91 0.9 NNE 7 9 4 5 1018.1 1016.7 5.4
03/12:30am 16.5 17.3 15.9 96 0.4 E 6 7 3 4 1018.1 1016.7 5.4
03/12:00am 16.6 17.4 15.8 95 0.5 N 6 7 3 4 1018.2 1016.8 5.4
 
Date/Time
EST
Tmp

°C
App
Tmp
°C
Dew
Point
°C
Rel
Hum
%
Delta-T

°C
Wind Press
QNH
hPa
Press
MSL
hPa
Rain
since
9 am
mm
Dir
 
Spd
km/h
Gust
km/h
Spd
kts
Gust
kts
02/11:30pm 16.2 16.9 15.7 97 0.3 ESE 6 6 3 3 1018.6 1017.1 5.4
02/11:00pm 16.2 16.8 15.7 97 0.3 E 7 9 4 5 1019.3 1017.9 5.4
02/10:30pm 15.9 16.0 15.4 97 0.3 SSE 9 11 5 6 1019.8 1018.4 5.2
02/10:13pm 15.8 16.4 15.3 97 0.3 SSW 6 7 3 4 1019.9 1018.5 5.0
02/10:01pm 15.7 16.1 15.2 97 0.3 SW 7 13 4 7 1020.3 1018.9 4.8
02/10:00pm 15.7 16.0 15.1 96 0.4 SW 7 13 4 7 1020.3 1018.9 4.8
02/09:38pm 16.1 15.5 15.6 97 0.3 WNW 13 17 7 9 1020.7 1019.3 4.2
02/09:30pm 16.3 16.1 15.7 96 0.4 W 11 15 6 8 1020.5 1019.1 3.8
02/09:23pm 16.5 17.7 15.9 96 0.4 SSW 4 11 2 6 1020.3 1018.9 3.4
02/09:00pm 16.4 16.2 15.8 96 0.4 E 11 13 6 7 1019.6 1018.2 2.8
02/08:30pm 16.2 14.7 15.2 94 0.6 E 17 20 9 11 1019.1 1017.7 2.8
02/08:00pm 16.0 15.5 15.0 94 0.6 SE 11 17 6 9 1018.7 1017.2 2.8
02/07:30pm 16.1 14.9 15.1 94 0.6 S 15 20 8 11 1018.9 1017.5 2.8
02/07:00pm 15.9 13.8 15.1 95 0.5 SSW 20 30 11 16 1019.7 1018.3 2.4
02/06:53pm 15.9 13.4 15.1 95 0.5 SSW 22 33 12 18 1019.7 1018.3 2.4
02/06:32pm 16.4 12.7 14.9 91 0.9 SW 28 44 15 24 1020.0 1018.6 1.2
02/06:30pm 16.7 12.6 14.9 89 1.1 SW 30 44 16 24 1020.3 1018.9 0.0
02/06:16pm 19.4 17.3 13.6 69 3.4 ESE 17 46 9 25 1019.4 1018.0 0.0
02/06:00pm 21.5 20.0 14.2 63 4.4 E 15 19 8 10 1018.4 1017.0 0.0
02/05:30pm 21.7 20.1 13.9 61 4.7 E 15 17 8 9 1018.3 1016.9 0.0
02/05:00pm 22.2 19.9 13.0 56 5.4 E 17 20 9 11 1017.9 1016.5 0.0
02/04:30pm 22.6 20.6 12.8 54 5.8 E 15 17 8 9 1017.6 1016.2 0.0
02/04:00pm 23.0 20.8 13.2 54 5.8 ENE 17 20 9 11 1017.3 1015.8 0.0
02/03:30pm 23.3 21.2 13.5 54 5.9 E 17 22 9 12 1017.1 1015.6 0.0
02/03:00pm 23.7 21.9 13.3 52 6.2 ENE 15 22 8 12 1017.0 1015.5 0.0
02/02:30pm 23.8 21.5 13.1 51 6.4 E 17 24 9 13 1017.0 1015.5 0.0
02/02:00pm 23.6 20.8 13.2 52 6.2 E 20 28 11 15 1016.9 1015.4 0.0
02/01:30pm 24.0 20.4 12.0 47 7.0 E 22 32 12 17 1017.3 1015.8 0.0
02/01:00pm 23.9 20.2 12.8 49 6.6 E 24 30 13 16 1017.7 1016.3 0.0
02/12:30pm 23.8 19.7 11.5 46 7.1 E 24 30 13 16 1018.4 1017.0 0.0
02/12:00pm 23.9 21.1 14.3 55 5.8 E 22 28 12 15 1019.0 1017.6 0.0
02/11:30am 23.0 20.0 13.8 56 5.5 E 22 28 12 15 1019.2 1017.8 0.0
02/11:00am 22.9 19.8 14.5 59 5.1 E 24 30 13 16 1019.6 1018.2 0.0
02/10:30am 21.9 19.5 14.3 62 4.6 E 20 26 11 14 1020.4 1019.0 0.0
02/10:00am 20.6 20.4 16.8 79 2.4 E 13 17 7 9 1021.0 1019.6 0.0
02/09:30am 19.7 18.2 16.2 80 2.2 ESE 19 22 10 12 1021.1 1019.7 0.0
02/09:00am 20.0 18.7 14.8 72 3.1 E 15 19 8 10 1020.9 1019.5 0.0
02/08:30am 19.3 18.2 15.4 78 2.4 E 15 17 8 9 1020.8 1019.4 0.0
02/08:00am 18.4 17.9 13.7 74 2.8 ESE 9 13 5 7 1020.7 1019.3 0.0
02/07:30am 18.7 18.9 14.6 77 2.4 E 7 9 4 5 1020.4 1019.0 0.0

Latest Capital City Observations: Canberra | Sydney | Melbourne | Brisbane | Adelaide | Perth | Hobart | Darwin

Other Formats:

Comma delimited format used in spreadsheet applications
http://www.bom.gov.au/fwo/IDQ60901/IDQ60901.95551.axf

JavaScript Object Notation format (JSON) in row-major order
http://www.bom.gov.au/fwo/IDQ60901/IDQ60901.95551.json